sensor_id;sensor_type;location;lat;lon;timestamp;temperature;humidity
36660;DHT22;22654;51.054;3.654;2023-07-13T00:01:51;15.70;99.90
36660;DHT22;22654;51.054;3.654;2023-07-13T00:04:19;15.50;99.90
36660;DHT22;22654;51.054;3.654;2023-07-13T00:06:46;15.50;99.90
36660;DHT22;22654;51.054;3.654;2023-07-13T00:09:13;15.50;99.90
36660;DHT22;22654;51.054;3.654;2023-07-13T00:11:40;15.50;99.90
36660;DHT22;22654;51.054;3.654;2023-07-13T00:14:07;15.50;99.90
36660;DHT22;22654;51.054;3.654;2023-07-13T00:16:35;15.40;99.90
36660;DHT22;22654;51.054;3.654;2023-07-13T00:19:05;15.40;99.90
36660;DHT22;22654;51.054;3.654;2023-07-13T00:21:32;15.40;99.90
36660;DHT22;22654;51.054;3.654;2023-07-13T00:23:58;15.40;99.90
36660;DHT22;22654;51.054;3.654;2023-07-13T00:26:24;15.30;99.90
36660;DHT22;22654;51.054;3.654;2023-07-13T00:28:50;15.30;99.90
36660;DHT22;22654;51.054;3.654;2023-07-13T00:31:17;15.20;99.90
36660;DHT22;22654;51.054;3.654;2023-07-13T00:33:43;15.10;99.90
36660;DHT22;22654;51.054;3.654;2023-07-13T00:36:10;15.00;99.90
36660;DHT22;22654;51.054;3.654;2023-07-13T00:38:36;15.00;99.90
36660;DHT22;22654;51.054;3.654;2023-07-13T00:41:03;15.00;99.90
36660;DHT22;22654;51.054;3.654;2023-07-13T00:43:30;15.20;99.90
36660;DHT22;22654;51.054;3.654;2023-07-13T00:48:26;15.20;99.90
36660;DHT22;22654;51.054;3.654;2023-07-13T00:50:57;15.10;99.90
36660;DHT22;22654;51.054;3.654;2023-07-13T00:53:25;15.00;99.90
36660;DHT22;22654;51.054;3.654;2023-07-13T00:55:53;14.90;99.90
36660;DHT22;22654;51.054;3.654;2023-07-13T00:58:22;14.90;99.90
36660;DHT22;22654;51.054;3.654;2023-07-13T01:00:49;14.90;99.90
36660;DHT22;22654;51.054;3.654;2023-07-13T01:03:16;15.00;99.90
36660;DHT22;22654;51.054;3.654;2023-07-13T01:05:42;14.90;99.90
36660;DHT22;22654;51.054;3.654;2023-07-13T01:08:08;15.00;99.90
36660;DHT22;22654;51.054;3.654;2023-07-13T01:10:35;15.00;99.90
36660;DHT22;22654;51.054;3.654;2023-07-13T01:13:10;15.00;99.90
36660;DHT22;22654;51.054;3.654;2023-07-13T01:15:42;14.90;99.90
36660;DHT22;22654;51.054;3.654;2023-07-13T01:18:12;14.80;99.90
36660;DHT22;22654;51.054;3.654;2023-07-13T01:20:40;14.90;99.90
36660;DHT22;22654;51.054;3.654;2023-07-13T01:23:09;14.80;99.90
36660;DHT22;22654;51.054;3.654;2023-07-13T01:25:37;14.80;99.90
36660;DHT22;22654;51.054;3.654;2023-07-13T01:28:07;14.80;99.90
36660;DHT22;22654;51.054;3.654;2023-07-13T01:30:39;14.80;99.90
36660;DHT22;22654;51.054;3.654;2023-07-13T01:33:07;14.90;99.90
36660;DHT22;22654;51.054;3.654;2023-07-13T01:35:33;14.90;99.90
36660;DHT22;22654;51.054;3.654;2023-07-13T01:37:59;14.90;99.90
36660;DHT22;22654;51.054;3.654;2023-07-13T01:40:27;15.00;99.90
36660;DHT22;22654;51.054;3.654;2023-07-13T01:42:53;14.90;99.90
36660;DHT22;22654;51.054;3.654;2023-07-13T01:45:19;14.90;99.90
36660;DHT22;22654;51.054;3.654;2023-07-13T01:47:47;14.90;99.90
36660;DHT22;22654;51.054;3.654;2023-07-13T01:50:12;14.90;99.90
36660;DHT22;22654;51.054;3.654;2023-07-13T01:52:38;15.00;99.90
36660;DHT22;22654;51.054;3.654;2023-07-13T01:55:04;15.00;99.90
36660;DHT22;22654;51.054;3.654;2023-07-13T01:57:30;15.00;99.90
36660;DHT22;22654;51.054;3.654;2023-07-13T01:59:56;15.00;99.90
36660;DHT22;22654;51.054;3.654;2023-07-13T02:02:22;15.10;99.90
36660;DHT22;22654;51.054;3.654;2023-07-13T02:04:48;15.10;99.90
36660;DHT22;22654;51.054;3.654;2023-07-13T02:07:14;15.10;99.90
36660;DHT22;22654;51.054;3.654;2023-07-13T02:09:40;15.10;99.90
36660;DHT22;22654;51.054;3.654;2023-07-13T02:12:08;15.10;99.90
36660;DHT22;22654;51.054;3.654;2023-07-13T02:14:34;15.10;99.90
36660;DHT22;22654;51.054;3.654;2023-07-13T02:17:00;15.10;99.90
36660;DHT22;22654;51.054;3.654;2023-07-13T02:19:26;15.10;99.90
36660;DHT22;22654;51.054;3.654;2023-07-13T02:21:52;15.20;99.90
36660;DHT22;22654;51.054;3.654;2023-07-13T02:24:17;15.30;99.90
36660;DHT22;22654;51.054;3.654;2023-07-13T02:26:46;15.20;99.90
36660;DHT22;22654;51.054;3.654;2023-07-13T02:29:13;15.10;99.90
36660;DHT22;22654;51.054;3.654;2023-07-13T02:31:39;15.10;99.90
36660;DHT22;22654;51.054;3.654;2023-07-13T02:34:05;15.10;99.90
36660;DHT22;22654;51.054;3.654;2023-07-13T02:36:31;15.00;99.90
36660;DHT22;22654;51.054;3.654;2023-07-13T02:39:02;15.00;99.90
36660;DHT22;22654;51.054;3.654;2023-07-13T02:41:28;15.00;99.90
36660;DHT22;22654;51.054;3.654;2023-07-13T02:43:54;14.90;99.90
36660;DHT22;22654;51.054;3.654;2023-07-13T02:46:32;14.90;99.90
36660;DHT22;22654;51.054;3.654;2023-07-13T02:48:58;14.90;99.90
36660;DHT22;22654;51.054;3.654;2023-07-13T02:51:24;14.90;99.90
36660;DHT22;22654;51.054;3.654;2023-07-13T02:53:50;14.80;99.90
36660;DHT22;22654;51.054;3.654;2023-07-13T02:56:18;14.80;99.90
36660;DHT22;22654;51.054;3.654;2023-07-13T02:58:44;14.70;99.90
36660;DHT22;22654;51.054;3.654;2023-07-13T03:01:11;14.70;99.90
36660;DHT22;22654;51.054;3.654;2023-07-13T03:03:37;14.60;99.90
36660;DHT22;22654;51.054;3.654;2023-07-13T03:06:04;14.60;99.90
36660;DHT22;22654;51.054;3.654;2023-07-13T03:08:38;14.60;99.90
36660;DHT22;22654;51.054;3.654;2023-07-13T03:11:08;14.60;99.90
36660;DHT22;22654;51.054;3.654;2023-07-13T03:13:38;14.70;99.90
36660;DHT22;22654;51.054;3.654;2023-07-13T03:16:05;14.60;99.90
36660;DHT22;22654;51.054;3.654;2023-07-13T03:18:31;14.70;99.90
36660;DHT22;22654;51.054;3.654;2023-07-13T03:21:01;14.60;99.90
36660;DHT22;22654;51.054;3.654;2023-07-13T03:23:28;14.70;99.90
36660;DHT22;22654;51.054;3.654;2023-07-13T03:26:09;14.90;99.90
36660;DHT22;22654;51.054;3.654;2023-07-13T03:28:39;15.00;99.90
36660;DHT22;22654;51.054;3.654;2023-07-13T03:31:13;15.00;99.90
36660;DHT22;22654;51.054;3.654;2023-07-13T03:33:40;15.10;99.90
36660;DHT22;22654;51.054;3.654;2023-07-13T03:36:09;15.20;99.90
36660;DHT22;22654;51.054;3.654;2023-07-13T03:38:35;15.30;99.90
36660;DHT22;22654;51.054;3.654;2023-07-13T03:41:02;15.40;99.90
36660;DHT22;22654;51.054;3.654;2023-07-13T03:43:29;15.40;99.90
36660;DHT22;22654;51.054;3.654;2023-07-13T03:45:55;15.40;99.90
36660;DHT22;22654;51.054;3.654;2023-07-13T03:48:21;15.40;99.90
36660;DHT22;22654;51.054;3.654;2023-07-13T03:50:48;15.20;99.90
36660;DHT22;22654;51.054;3.654;2023-07-13T03:53:15;15.30;99.90
36660;DHT22;22654;51.054;3.654;2023-07-13T03:55:41;15.30;99.90
36660;DHT22;22654;51.054;3.654;2023-07-13T03:58:27;15.40;99.90
36660;DHT22;22654;51.054;3.654;2023-07-13T04:00:58;15.70;99.90
36660;DHT22;22654;51.054;3.654;2023-07-13T04:03:24;14.20;99.90
36660;DHT22;22654;51.054;3.654;2023-07-13T04:05:52;15.70;99.90
36660;DHT22;22654;51.054;3.654;2023-07-13T04:08:22;15.70;99.90
36660;DHT22;22654;51.054;3.654;2023-07-13T04:10:51;15.80;99.90
36660;DHT22;22654;51.054;3.654;2023-07-13T04:13:17;15.90;99.90
36660;DHT22;22654;51.054;3.654;2023-07-13T04:15:43;16.10;99.90
36660;DHT22;22654;51.054;3.654;2023-07-13T04:18:09;16.00;99.90
36660;DHT22;22654;51.054;3.654;2023-07-13T04:20:35;16.10;99.90
36660;DHT22;22654;51.054;3.654;2023-07-13T04:23:01;16.20;99.90
36660;DHT22;22654;51.054;3.654;2023-07-13T04:25:27;16.10;99.90
36660;DHT22;22654;51.054;3.654;2023-07-13T04:27:53;16.30;99.90
36660;DHT22;22654;51.054;3.654;2023-07-13T04:30:20;16.30;99.90
36660;DHT22;22654;51.054;3.654;2023-07-13T04:32:46;16.40;99.90
36660;DHT22;22654;51.054;3.654;2023-07-13T04:35:12;16.50;99.90
36660;DHT22;22654;51.054;3.654;2023-07-13T04:37:40;16.50;99.90
36660;DHT22;22654;51.054;3.654;2023-07-13T04:40:07;16.60;99.90
36660;DHT22;22654;51.054;3.654;2023-07-13T04:42:37;16.70;99.90
36660;DHT22;22654;51.054;3.654;2023-07-13T04:45:03;16.60;99.90
36660;DHT22;22654;51.054;3.654;2023-07-13T04:47:30;16.60;99.90
36660;DHT22;22654;51.054;3.654;2023-07-13T04:49:56;16.70;99.90
36660;DHT22;22654;51.054;3.654;2023-07-13T04:52:23;16.80;99.90
36660;DHT22;22654;51.054;3.654;2023-07-13T04:54:52;16.80;99.90
36660;DHT22;22654;51.054;3.654;2023-07-13T04:57:18;16.80;99.90
36660;DHT22;22654;51.054;3.654;2023-07-13T04:59:44;16.90;99.90
36660;DHT22;22654;51.054;3.654;2023-07-13T05:02:10;16.90;99.90
36660;DHT22;22654;51.054;3.654;2023-07-13T05:04:36;17.10;99.90
36660;DHT22;22654;51.054;3.654;2023-07-13T05:07:02;17.20;99.90
36660;DHT22;22654;51.054;3.654;2023-07-13T05:09:28;17.40;99.90
36660;DHT22;22654;51.054;3.654;2023-07-13T05:11:54;17.40;99.90
36660;DHT22;22654;51.054;3.654;2023-07-13T05:14:20;17.40;99.90
36660;DHT22;22654;51.054;3.654;2023-07-13T05:16:45;17.50;99.90
36660;DHT22;22654;51.054;3.654;2023-07-13T05:19:12;17.70;99.90
36660;DHT22;22654;51.054;3.654;2023-07-13T05:21:38;17.70;99.90
36660;DHT22;22654;51.054;3.654;2023-07-13T05:24:04;17.80;99.90
36660;DHT22;22654;51.054;3.654;2023-07-13T05:26:29;17.70;99.90
36660;DHT22;22654;51.054;3.654;2023-07-13T05:28:55;17.80;99.90
36660;DHT22;22654;51.054;3.654;2023-07-13T05:31:21;17.90;99.90
36660;DHT22;22654;51.054;3.654;2023-07-13T05:33:47;18.00;99.90
36660;DHT22;22654;51.054;3.654;2023-07-13T05:36:13;18.00;99.90
36660;DHT22;22654;51.054;3.654;2023-07-13T05:38:38;18.20;99.90
36660;DHT22;22654;51.054;3.654;2023-07-13T05:41:05;18.30;99.90
36660;DHT22;22654;51.054;3.654;2023-07-13T05:43:31;18.40;99.90
36660;DHT22;22654;51.054;3.654;2023-07-13T05:45:57;18.50;99.90
36660;DHT22;22654;51.054;3.654;2023-07-13T05:48:25;18.50;99.90
36660;DHT22;22654;51.054;3.654;2023-07-13T05:50:51;18.80;99.90
36660;DHT22;22654;51.054;3.654;2023-07-13T05:53:17;19.00;99.90
36660;DHT22;22654;51.054;3.654;2023-07-13T05:55:47;19.10;99.90
36660;DHT22;22654;51.054;3.654;2023-07-13T05:58:17;19.10;99.90
36660;DHT22;22654;51.054;3.654;2023-07-13T06:00:43;19.20;99.90
36660;DHT22;22654;51.054;3.654;2023-07-13T06:03:09;19.30;99.90
36660;DHT22;22654;51.054;3.654;2023-07-13T06:05:36;19.30;99.90
36660;DHT22;22654;51.054;3.654;2023-07-13T06:08:03;19.50;99.90
36660;DHT22;22654;51.054;3.654;2023-07-13T06:10:29;19.90;99.90
36660;DHT22;22654;51.054;3.654;2023-07-13T06:12:55;20.10;99.90
36660;DHT22;22654;51.054;3.654;2023-07-13T06:15:21;20.30;99.90
36660;DHT22;22654;51.054;3.654;2023-07-13T06:17:46;20.50;99.90
36660;DHT22;22654;51.054;3.654;2023-07-13T06:20:12;20.50;99.90
36660;DHT22;22654;51.054;3.654;2023-07-13T06:22:38;20.60;99.90
36660;DHT22;22654;51.054;3.654;2023-07-13T06:25:04;20.80;99.90
36660;DHT22;22654;51.054;3.654;2023-07-13T06:27:30;20.80;99.90
36660;DHT22;22654;51.054;3.654;2023-07-13T06:29:56;20.70;99.90
36660;DHT22;22654;51.054;3.654;2023-07-13T06:32:22;20.80;99.90
36660;DHT22;22654;51.054;3.654;2023-07-13T06:34:47;21.10;99.90
36660;DHT22;22654;51.054;3.654;2023-07-13T06:37:13;21.30;99.90
36660;DHT22;22654;51.054;3.654;2023-07-13T06:39:39;21.50;99.90
36660;DHT22;22654;51.054;3.654;2023-07-13T06:42:05;21.90;99.90
36660;DHT22;22654;51.054;3.654;2023-07-13T06:44:32;22.60;99.90
36660;DHT22;22654;51.054;3.654;2023-07-13T06:46:57;22.90;99.90
36660;DHT22;22654;51.054;3.654;2023-07-13T06:49:23;23.00;99.90
36660;DHT22;22654;51.054;3.654;2023-07-13T06:51:49;23.10;99.90
36660;DHT22;22654;51.054;3.654;2023-07-13T06:54:15;23.00;99.90
36660;DHT22;22654;51.054;3.654;2023-07-13T06:56:41;23.10;99.90
36660;DHT22;22654;51.054;3.654;2023-07-13T06:59:06;23.70;99.90
36660;DHT22;22654;51.054;3.654;2023-07-13T07:01:32;24.40;99.90
36660;DHT22;22654;51.054;3.654;2023-07-13T07:03:58;24.70;99.90
36660;DHT22;22654;51.054;3.654;2023-07-13T07:06:24;26.00;99.90
36660;DHT22;22654;51.054;3.654;2023-07-13T07:08:51;27.80;99.90
36660;DHT22;22654;51.054;3.654;2023-07-13T07:11:23;28.90;99.40
36660;DHT22;22654;51.054;3.654;2023-07-13T07:13:50;29.90;98.30
36660;DHT22;22654;51.054;3.654;2023-07-13T07:16:16;30.10;96.10
36660;DHT22;22654;51.054;3.654;2023-07-13T07:18:43;29.60;95.60
36660;DHT22;22654;51.054;3.654;2023-07-13T07:21:08;29.40;96.10
36660;DHT22;22654;51.054;3.654;2023-07-13T07:23:34;30.10;95.70
36660;DHT22;22654;51.054;3.654;2023-07-13T07:26:00;30.70;94.60
36660;DHT22;22654;51.054;3.654;2023-07-13T07:28:26;31.60;93.90
36660;DHT22;22654;51.054;3.654;2023-07-13T07:30:56;32.10;93.30
36660;DHT22;22654;51.054;3.654;2023-07-13T07:33:23;32.40;92.40
36660;DHT22;22654;51.054;3.654;2023-07-13T07:35:49;32.60;92.10
36660;DHT22;22654;51.054;3.654;2023-07-13T07:38:15;33.20;90.50
36660;DHT22;22654;51.054;3.654;2023-07-13T07:40:42;33.80;90.70
36660;DHT22;22654;51.054;3.654;2023-07-13T07:43:10;33.30;88.90
36660;DHT22;22654;51.054;3.654;2023-07-13T07:45:36;33.20;90.00
36660;DHT22;22654;51.054;3.654;2023-07-13T07:48:04;32.50;89.90
36660;DHT22;22654;51.054;3.654;2023-07-13T07:50:31;31.00;90.80
36660;DHT22;22654;51.054;3.654;2023-07-13T07:53:00;30.60;91.10
36660;DHT22;22654;51.054;3.654;2023-07-13T07:55:27;30.70;90.90
36660;DHT22;22654;51.054;3.654;2023-07-13T07:57:55;30.10;91.20
36660;DHT22;22654;51.054;3.654;2023-07-13T08:00:21;29.60;91.40
36660;DHT22;22654;51.054;3.654;2023-07-13T08:02:47;28.50;92.30
36660;DHT22;22654;51.054;3.654;2023-07-13T08:05:14;28.00;93.30
36660;DHT22;22654;51.054;3.654;2023-07-13T08:07:40;27.50;93.00
36660;DHT22;22654;51.054;3.654;2023-07-13T08:10:07;26.80;93.80
36660;DHT22;22654;51.054;3.654;2023-07-13T08:12:37;26.30;94.50
36660;DHT22;22654;51.054;3.654;2023-07-13T08:15:04;26.00;95.40
36660;DHT22;22654;51.054;3.654;2023-07-13T08:17:31;25.90;96.00
36660;DHT22;22654;51.054;3.654;2023-07-13T08:19:57;25.70;96.40
36660;DHT22;22654;51.054;3.654;2023-07-13T08:22:23;25.90;96.00
36660;DHT22;22654;51.054;3.654;2023-07-13T08:24:49;26.20;95.30
36660;DHT22;22654;51.054;3.654;2023-07-13T08:27:22;26.80;94.30
36660;DHT22;22654;51.054;3.654;2023-07-13T08:29:49;26.60;94.60
36660;DHT22;22654;51.054;3.654;2023-07-13T08:32:15;27.20;94.20
36660;DHT22;22654;51.054;3.654;2023-07-13T08:34:41;27.00;93.60
36660;DHT22;22654;51.054;3.654;2023-07-13T08:37:07;26.30;94.30
36660;DHT22;22654;51.054;3.654;2023-07-13T08:39:35;25.60;94.80
36660;DHT22;22654;51.054;3.654;2023-07-13T08:47:24;26.30;95.10
36660;DHT22;22654;51.054;3.654;2023-07-13T08:49:52;26.20;94.10
36660;DHT22;22654;51.054;3.654;2023-07-13T08:52:35;26.40;94.80
36660;DHT22;22654;51.054;3.654;2023-07-13T08:55:20;26.40;95.00
36660;DHT22;22654;51.054;3.654;2023-07-13T08:57:53;26.50;94.10
36660;DHT22;22654;51.054;3.654;2023-07-13T09:00:31;26.00;94.30
36660;DHT22;22654;51.054;3.654;2023-07-13T09:03:00;25.80;94.20
36660;DHT22;22654;51.054;3.654;2023-07-13T09:05:38;25.60;94.80
36660;DHT22;22654;51.054;3.654;2023-07-13T09:08:29;25.40;95.00
36660;DHT22;22654;51.054;3.654;2023-07-13T09:16:05;26.20;94.40
36660;DHT22;22654;51.054;3.654;2023-07-13T09:18:35;26.40;93.90
36660;DHT22;22654;51.054;3.654;2023-07-13T09:21:14;26.20;93.60
36660;DHT22;22654;51.054;3.654;2023-07-13T09:23:41;25.90;94.30
36660;DHT22;22654;51.054;3.654;2023-07-13T09:26:14;26.10;94.70
36660;DHT22;22654;51.054;3.654;2023-07-13T09:28:44;26.00;95.20
36660;DHT22;22654;51.054;3.654;2023-07-13T09:31:34;26.20;94.40
36660;DHT22;22654;51.054;3.654;2023-07-13T09:34:04;26.10;94.40
36660;DHT22;22654;51.054;3.654;2023-07-13T09:36:32;26.20;94.30
36660;DHT22;22654;51.054;3.654;2023-07-13T09:44:14;26.10;95.00
36660;DHT22;22654;51.054;3.654;2023-07-13T09:46:46;26.20;95.10
36660;DHT22;22654;51.054;3.654;2023-07-13T09:49:13;26.40;94.70
36660;DHT22;22654;51.054;3.654;2023-07-13T09:51:41;26.40;94.90
36660;DHT22;22654;51.054;3.654;2023-07-13T09:54:19;26.40;94.30
36660;DHT22;22654;51.054;3.654;2023-07-13T09:56:45;26.50;94.40
36660;DHT22;22654;51.054;3.654;2023-07-13T09:59:22;26.60;94.10
36660;DHT22;22654;51.054;3.654;2023-07-13T10:01:49;26.80;93.80
36660;DHT22;22654;51.054;3.654;2023-07-13T10:04:21;27.10;93.70
36660;DHT22;22654;51.054;3.654;2023-07-13T10:07:06;27.20;93.60
36660;DHT22;22654;51.054;3.654;2023-07-13T10:09:36;27.40;93.10
36660;DHT22;22654;51.054;3.654;2023-07-13T10:12:01;27.50;92.80
36660;DHT22;22654;51.054;3.654;2023-07-13T10:14:30;27.50;93.30
36660;DHT22;22654;51.054;3.654;2023-07-13T10:17:00;27.50;93.60
36660;DHT22;22654;51.054;3.654;2023-07-13T10:19:35;28.10;92.40
36660;DHT22;22654;51.054;3.654;2023-07-13T10:22:26;28.30;92.50
36660;DHT22;22654;51.054;3.654;2023-07-13T10:24:54;28.40;91.50
36660;DHT22;22654;51.054;3.654;2023-07-13T10:27:30;27.90;91.80
36660;DHT22;22654;51.054;3.654;2023-07-13T10:30:20;27.60;92.00
36660;DHT22;22654;51.054;3.654;2023-07-13T10:32:49;27.30;92.70
36660;DHT22;22654;51.054;3.654;2023-07-13T10:35:18;27.00;92.60
36660;DHT22;22654;51.054;3.654;2023-07-13T10:38:08;26.50;93.00
36660;DHT22;22654;51.054;3.654;2023-07-13T10:40:43;26.00;93.30
36660;DHT22;22654;51.054;3.654;2023-07-13T10:46:04;23.90;99.10
36660;DHT22;22654;51.054;3.654;2023-07-13T10:48:33;22.30;99.90
36660;DHT22;22654;51.054;3.654;2023-07-13T10:51:00;21.00;99.90
36660;DHT22;22654;51.054;3.654;2023-07-13T10:53:37;19.90;99.90
36660;DHT22;22654;51.054;3.654;2023-07-13T10:56:28;19.20;99.90
36660;DHT22;22654;51.054;3.654;2023-07-13T10:59:09;18.90;99.90
36660;DHT22;22654;51.054;3.654;2023-07-13T11:01:46;18.70;99.90
36660;DHT22;22654;51.054;3.654;2023-07-13T11:04:13;18.60;99.90
36660;DHT22;22654;51.054;3.654;2023-07-13T11:06:41;18.80;99.90
36660;DHT22;22654;51.054;3.654;2023-07-13T11:11:58;19.20;99.90
36660;DHT22;22654;51.054;3.654;2023-07-13T11:14:30;19.70;99.90
36660;DHT22;22654;51.054;3.654;2023-07-13T11:16:57;20.30;99.90
36660;DHT22;22654;51.054;3.654;2023-07-13T11:19:24;21.00;99.90
36660;DHT22;22654;51.054;3.654;2023-07-13T11:22:12;21.60;99.90
36660;DHT22;22654;51.054;3.654;2023-07-13T11:25:21;22.30;99.90
36660;DHT22;22654;51.054;3.654;2023-07-13T11:30:43;22.80;99.90
36660;DHT22;22654;51.054;3.654;2023-07-13T11:33:44;23.20;99.90
36660;DHT22;22654;51.054;3.654;2023-07-13T11:36:16;23.50;99.90
36660;DHT22;22654;51.054;3.654;2023-07-13T11:38:43;23.90;99.90
36660;DHT22;22654;51.054;3.654;2023-07-13T11:41:18;24.10;99.90
36660;DHT22;22654;51.054;3.654;2023-07-13T11:43:45;24.30;99.90
36660;DHT22;22654;51.054;3.654;2023-07-13T11:46:20;24.90;99.90
36660;DHT22;22654;51.054;3.654;2023-07-13T11:48:47;25.20;99.90
36660;DHT22;22654;51.054;3.654;2023-07-13T11:51:23;25.40;99.90
36660;DHT22;22654;51.054;3.654;2023-07-13T11:53:56;25.80;99.90
36660;DHT22;22654;51.054;3.654;2023-07-13T11:56:26;25.90;99.90
36660;DHT22;22654;51.054;3.654;2023-07-13T11:58:54;25.90;99.90
36660;DHT22;22654;51.054;3.654;2023-07-13T12:01:30;25.60;99.90
36660;DHT22;22654;51.054;3.654;2023-07-13T12:04:04;25.30;99.90
36660;DHT22;22654;51.054;3.654;2023-07-13T12:06:34;25.20;99.90
36660;DHT22;22654;51.054;3.654;2023-07-13T12:09:13;25.00;99.90
36660;DHT22;22654;51.054;3.654;2023-07-13T12:11:43;24.50;99.90
36660;DHT22;22654;51.054;3.654;2023-07-13T12:14:17;24.40;99.90
36660;DHT22;22654;51.054;3.654;2023-07-13T12:16:44;24.40;99.90
36660;DHT22;22654;51.054;3.654;2023-07-13T12:19:18;24.60;99.90
36660;DHT22;22654;51.054;3.654;2023-07-13T12:21:46;24.80;99.90
36660;DHT22;22654;51.054;3.654;2023-07-13T12:24:17;24.90;99.90
36660;DHT22;22654;51.054;3.654;2023-07-13T12:26:44;25.00;99.90
36660;DHT22;22654;51.054;3.654;2023-07-13T12:29:17;25.20;99.90
36660;DHT22;22654;51.054;3.654;2023-07-13T12:31:45;25.20;99.90
36660;DHT22;22654;51.054;3.654;2023-07-13T12:34:17;25.30;99.90
36660;DHT22;22654;51.054;3.654;2023-07-13T12:37:02;25.30;99.90
36660;DHT22;22654;51.054;3.654;2023-07-13T12:47:49;26.10;99.90
36660;DHT22;22654;51.054;3.654;2023-07-13T12:50:19;26.90;99.90
36660;DHT22;22654;51.054;3.654;2023-07-13T12:52:51;27.20;99.90
36660;DHT22;22654;51.054;3.654;2023-07-13T12:55:19;27.30;99.90
36660;DHT22;22654;51.054;3.654;2023-07-13T12:57:54;27.10;99.90
36660;DHT22;22654;51.054;3.654;2023-07-13T13:00:36;27.10;99.90
36660;DHT22;22654;51.054;3.654;2023-07-13T13:03:21;26.50;99.90
36660;DHT22;22654;51.054;3.654;2023-07-13T13:05:47;26.50;99.90
36660;DHT22;22654;51.054;3.654;2023-07-13T13:08:16;27.00;99.90
36660;DHT22;22654;51.054;3.654;2023-07-13T13:10:42;27.30;99.90
36660;DHT22;22654;51.054;3.654;2023-07-13T13:13:08;27.20;99.90
36660;DHT22;22654;51.054;3.654;2023-07-13T13:15:34;27.50;98.90
36660;DHT22;22654;51.054;3.654;2023-07-13T13:18:02;27.00;98.20
36660;DHT22;22654;51.054;3.654;2023-07-13T13:20:28;26.50;98.70
36660;DHT22;22654;51.054;3.654;2023-07-13T13:22:54;26.30;99.30
36660;DHT22;22654;51.054;3.654;2023-07-13T13:25:23;26.40;99.60
36660;DHT22;22654;51.054;3.654;2023-07-13T13:27:49;26.70;99.00
36660;DHT22;22654;51.054;3.654;2023-07-13T13:30:17;26.60;97.80
36660;DHT22;22654;51.054;3.654;2023-07-13T13:32:47;26.20;97.70
36660;DHT22;22654;51.054;3.654;2023-07-13T13:35:19;26.10;98.10
36660;DHT22;22654;51.054;3.654;2023-07-13T13:37:46;25.90;98.30
36660;DHT22;22654;51.054;3.654;2023-07-13T13:40:15;25.80;98.00
36660;DHT22;22654;51.054;3.654;2023-07-13T13:42:42;25.60;98.00
36660;DHT22;22654;51.054;3.654;2023-07-13T13:45:09;25.50;98.40
36660;DHT22;22654;51.054;3.654;2023-07-13T13:47:36;25.90;98.30
36660;DHT22;22654;51.054;3.654;2023-07-13T13:50:18;26.50;97.50
36660;DHT22;22654;51.054;3.654;2023-07-13T13:52:48;26.90;97.30
36660;DHT22;22654;51.054;3.654;2023-07-13T13:55:21;26.90;96.50
36660;DHT22;22654;51.054;3.654;2023-07-13T13:57:49;26.90;96.00
36660;DHT22;22654;51.054;3.654;2023-07-13T14:00:17;27.00;96.10
36660;DHT22;22654;51.054;3.654;2023-07-13T14:02:47;26.80;96.20
36660;DHT22;22654;51.054;3.654;2023-07-13T14:05:24;27.10;96.90
36660;DHT22;22654;51.054;3.654;2023-07-13T14:07:53;27.60;96.20
36660;DHT22;22654;51.054;3.654;2023-07-13T14:10:20;27.60;95.80
36660;DHT22;22654;51.054;3.654;2023-07-13T14:12:48;27.20;96.00
36660;DHT22;22654;51.054;3.654;2023-07-13T14:15:24;27.20;95.60
36660;DHT22;22654;51.054;3.654;2023-07-13T14:17:51;27.30;96.30
36660;DHT22;22654;51.054;3.654;2023-07-13T14:20:19;27.70;95.90
36660;DHT22;22654;51.054;3.654;2023-07-13T14:22:46;28.10;95.80
36660;DHT22;22654;51.054;3.654;2023-07-13T14:25:13;28.40;95.10
36660;DHT22;22654;51.054;3.654;2023-07-13T14:27:40;28.70;95.20
36660;DHT22;22654;51.054;3.654;2023-07-13T14:30:15;28.50;94.50
36660;DHT22;22654;51.054;3.654;2023-07-13T14:32:41;28.40;94.40
36660;DHT22;22654;51.054;3.654;2023-07-13T14:35:13;28.10;95.00
36660;DHT22;22654;51.054;3.654;2023-07-13T14:37:40;27.70;94.80
36660;DHT22;22654;51.054;3.654;2023-07-13T14:40:28;27.70;95.40
36660;DHT22;22654;51.054;3.654;2023-07-13T14:42:58;27.80;95.60
36660;DHT22;22654;51.054;3.654;2023-07-13T14:45:24;28.00;95.30
36660;DHT22;22654;51.054;3.654;2023-07-13T14:47:51;28.40;93.50
36660;DHT22;22654;51.054;3.654;2023-07-13T14:50:24;28.90;93.80
36660;DHT22;22654;51.054;3.654;2023-07-13T14:52:51;29.40;93.10
36660;DHT22;22654;51.054;3.654;2023-07-13T14:55:18;28.60;93.30
36660;DHT22;22654;51.054;3.654;2023-07-13T14:57:45;27.70;93.70
36660;DHT22;22654;51.054;3.654;2023-07-13T15:00:19;27.00;94.20
36660;DHT22;22654;51.054;3.654;2023-07-13T15:05:24;26.20;94.80
36660;DHT22;22654;51.054;3.654;2023-07-13T15:07:51;26.00;95.40
36660;DHT22;22654;51.054;3.654;2023-07-13T15:10:22;26.00;95.30
36660;DHT22;22654;51.054;3.654;2023-07-13T15:12:51;26.00;95.40
36660;DHT22;22654;51.054;3.654;2023-07-13T15:15:17;26.20;95.10
36660;DHT22;22654;51.054;3.654;2023-07-13T15:17:45;27.10;94.70
36660;DHT22;22654;51.054;3.654;2023-07-13T15:20:30;28.00;94.10
36660;DHT22;22654;51.054;3.654;2023-07-13T15:22:58;27.90;93.60
36660;DHT22;22654;51.054;3.654;2023-07-13T15:25:26;29.00;93.30
36660;DHT22;22654;51.054;3.654;2023-07-13T15:27:53;29.90;93.10
36660;DHT22;22654;51.054;3.654;2023-07-13T15:30:19;29.70;92.30
36660;DHT22;22654;51.054;3.654;2023-07-13T15:32:46;30.20;91.40
36660;DHT22;22654;51.054;3.654;2023-07-13T15:46:00;30.40;89.70
36660;DHT22;22654;51.054;3.654;2023-07-13T15:48:26;30.50;89.70
36660;DHT22;22654;51.054;3.654;2023-07-13T15:58:42;28.10;90.30
36660;DHT22;22654;51.054;3.654;2023-07-13T16:01:13;27.40;91.20
36660;DHT22;22654;51.054;3.654;2023-07-13T16:09:49;27.90;91.90
36660;DHT22;22654;51.054;3.654;2023-07-13T16:15:00;31.50;90.30
36660;DHT22;22654;51.054;3.654;2023-07-13T16:22:47;32.20;85.30
36660;DHT22;22654;51.054;3.654;2023-07-13T17:29:47;27.10;91.20
36660;DHT22;22654;51.054;3.654;2023-07-13T17:32:19;26.80;91.00
36660;DHT22;22654;51.054;3.654;2023-07-13T17:34:46;26.90;91.00
36660;DHT22;22654;51.054;3.654;2023-07-13T17:37:16;26.90;91.20
36660;DHT22;22654;51.054;3.654;2023-07-13T17:39:43;26.80;91.20
36660;DHT22;22654;51.054;3.654;2023-07-13T17:42:12;26.30;91.50
36660;DHT22;22654;51.054;3.654;2023-07-13T17:44:39;26.80;91.70
36660;DHT22;22654;51.054;3.654;2023-07-13T17:47:10;27.30;91.30
36660;DHT22;22654;51.054;3.654;2023-07-13T17:49:41;27.30;91.00
36660;DHT22;22654;51.054;3.654;2023-07-13T17:52:08;26.60;91.70
36660;DHT22;22654;51.054;3.654;2023-07-13T17:54:34;26.70;91.80
36660;DHT22;22654;51.054;3.654;2023-07-13T17:57:00;26.80;92.00